Time,TemperatureF,DewpointF,PressureIn,WindDirection,WindDirectionDegrees,WindSpeedMPH,WindSpeedGustMPH,Humidity,HourlyPrecipIn,Conditions,Clouds,dailyrainin,SoftwareType,DateUTC
2013-03-07 00:01:00,35.0,24.0,29.87,ESE,106,4.0,-999.0,65,-99.99,,,-99.99,,2013-03-07 07:01:00,
2013-03-07 00:11:00,35.0,24.0,29.87,ESE,106,4.0,-999.0,65,-99.99,,,-99.99,,2013-03-07 07:11:00,
2013-03-07 00:21:00,34.0,23.0,29.88,ESE,106,3.0,-999.0,64,-99.99,,,-99.99,,2013-03-07 07:21:00,
2013-03-07 00:32:00,34.0,24.0,29.88,ESE,106,3.0,-999.0,66,-99.99,,,-99.99,,2013-03-07 07:32:00,
2013-03-07 00:42:00,34.0,24.0,29.88,ESE,106,3.0,-999.0,66,-99.99,,,-99.99,,2013-03-07 07:42:00,
2013-03-07 01:02:00,35.0,24.0,29.87,ESE,106,2.0,-999.0,64,-99.99,,,-99.99,,2013-03-07 08:02:00,
2013-03-07 01:12:00,35.0,24.0,29.87,ESE,106,2.0,-999.0,64,-99.99,,,-99.99,,2013-03-07 08:12:00,
2013-03-07 01:22:00,36.0,25.0,29.87,ESE,106,3.0,-999.0,63,-99.99,,,-99.99,,2013-03-07 08:22:00,
2013-03-07 01:33:00,36.0,24.0,29.87,ESE,106,2.0,-999.0,62,-99.99,,,-99.99,,2013-03-07 08:33:00,
2013-03-07 01:43:00,36.0,24.0,29.87,ESE,106,2.0,-999.0,62,-99.99,,,-99.99,,2013-03-07 08:43:00,
2013-03-07 01:54:00,34.0,24.0,29.87,ESE,106,2.0,-999.0,66,-99.99,,,-99.99,,2013-03-07 08:54:00,
2013-03-07 02:03:00,34.0,24.0,29.87,ESE,106,2.0,-999.0,66,-99.99,,,-99.99,,2013-03-07 09:03:00,
2013-03-07 02:13:00,34.0,24.0,29.87,ESE,106,2.0,-999.0,66,-99.99,,,-99.99,,2013-03-07 09:13:00,
2013-03-07 02:23:00,35.0,24.0,29.88,ESE,106,2.0,-999.0,65,-99.99,,,-99.99,,2013-03-07 09:23:00,
2013-03-07 02:32:00,35.0,24.0,29.88,ESE,106,0.0,-999.0,65,-99.99,,,-99.99,,2013-03-07 09:32:00,
2013-03-07 02:42:00,35.0,24.0,29.88,ESE,106,0.0,-999.0,65,-99.99,,,-99.99,,2013-03-07 09:42:00,
2013-03-07 02:53:00,34.0,23.0,29.86,ESE,106,2.0,-999.0,65,-99.99,,,-99.99,,2013-03-07 09:53:00,
2013-03-07 03:02:00,34.0,23.0,29.86,ESE,106,1.0,-999.0,65,-99.99,,,-99.99,,2013-03-07 10:02:00,
2013-03-07 03:12:00,34.0,23.0,29.86,ESE,106,1.0,-999.0,65,-99.99,,,-99.99,,2013-03-07 10:12:00,
2013-03-07 03:23:00,33.0,24.0,29.85,ESE,106,1.0,-999.0,68,-99.99,,,-99.99,,2013-03-07 10:23:00,
2013-03-07 03:33:00,31.0,22.0,29.85,ESE,106,1.0,-999.0,69,-99.99,,,-99.99,,2013-03-07 10:33:00,
2013-03-07 03:42:00,31.0,22.0,29.85,ESE,106,1.0,-999.0,69,-99.99,,,-99.99,,2013-03-07 10:42:00,
2013-03-07 03:53:00,33.0,23.0,29.88,ESE,106,2.0,-999.0,67,-99.99,,,-99.99,,2013-03-07 10:53:00,
2013-03-07 04:02:00,33.0,21.0,29.88,ESE,106,3.0,-999.0,62,-99.99,,,-99.99,,2013-03-07 11:02:00,
2013-03-07 04:23:00,31.0,21.0,29.88,ESE,106,4.0,-999.0,66,-99.99,,,-99.99,,2013-03-07 11:23:00,
2013-03-07 04:33:00,32.0,20.0,29.88,ESE,106,1.0,-999.0,62,-99.99,,,-99.99,,2013-03-07 11:33:00,
2013-03-07 04:42:00,32.0,20.0,29.88,ESE,106,1.0,-999.0,62,-99.99,,,-99.99,,2013-03-07 11:42:00,
2013-03-07 04:54:00,32.0,20.0,29.89,ESE,106,2.0,-999.0,61,-99.99,,,-99.99,,2013-03-07 11:54:00,
2013-03-07 05:02:00,32.0,20.0,29.89,ESE,106,1.0,-999.0,62,-99.99,,,-99.99,,2013-03-07 12:02:00,
2013-03-07 05:12:00,32.0,20.0,29.89,ESE,106,1.0,-999.0,62,-99.99,,,-99.99,,2013-03-07 12:12:00,
2013-03-07 05:22:00,30.0,21.0,29.89,ESE,106,0.0,-999.0,68,-99.99,,,-99.99,,2013-03-07 12:22:00,
2013-03-07 05:33:00,30.0,21.0,29.89,ESE,106,1.0,-999.0,68,-99.99,,,-99.99,,2013-03-07 12:33:00,
2013-03-07 05:42:00,30.0,21.0,29.89,ESE,106,1.0,-999.0,68,-99.99,,,-99.99,,2013-03-07 12:42:00,
2013-03-07 05:53:00,31.0,20.0,29.91,ESE,106,2.0,-999.0,64,-99.99,,,-99.99,,2013-03-07 12:53:00,
2013-03-07 06:02:00,32.0,20.0,29.91,ESE,106,2.0,-999.0,62,-99.99,,,-99.99,,2013-03-07 13:02:00,
2013-03-07 06:12:00,32.0,20.0,29.91,ESE,106,2.0,-999.0,62,-99.99,,,-99.99,,2013-03-07 13:12:00,
2013-03-07 06:22:00,31.0,21.0,29.91,ESE,106,2.0,-999.0,65,-99.99,,,-99.99,,2013-03-07 13:22:00,
2013-03-07 06:32:00,31.0,20.0,29.91,ESE,106,1.0,-999.0,62,-99.99,,,-99.99,,2013-03-07 13:32:00,
2013-03-07 06:42:00,31.0,20.0,29.91,ESE,106,1.0,-999.0,62,-99.99,,,-99.99,,2013-03-07 13:42:00,
2013-03-07 06:53:00,29.0,19.0,29.92,ESE,106,0.0,-999.0,66,-99.99,,,-99.99,,2013-03-07 13:53:00,
2013-03-07 07:02:00,31.0,22.0,29.92,ESE,106,0.0,-999.0,68,-99.99,,,-99.99,,2013-03-07 14:02:00,
2013-03-07 07:22:00,33.0,24.0,29.94,ESE,105,1.0,-999.0,68,-99.99,,,-99.99,,2013-03-07 14:22:00,
2013-03-07 07:32:00,34.0,23.0,29.94,ESE,105,0.0,-999.0,64,-99.99,,,-99.99,,2013-03-07 14:32:00,
2013-03-07 07:42:00,34.0,23.0,29.94,ESE,105,0.0,-999.0,64,-99.99,,,-99.99,,2013-03-07 14:42:00,
2013-03-07 07:54:00,34.0,23.0,29.96,East,98,0.0,-999.0,65,-99.99,,,-99.99,,2013-03-07 14:54:00,
2013-03-07 08:02:00,35.0,24.0,29.96,East,98,0.0,-999.0,64,-99.99,,,-99.99,,2013-03-07 15:02:00,
2013-03-07 08:12:00,35.0,24.0,29.96,East,98,0.0,-999.0,64,-99.99,,,-99.99,,2013-03-07 15:12:00,
2013-03-07 08:22:00,36.0,25.0,29.97,East,98,1.0,-999.0,65,-99.99,,,-99.99,,2013-03-07 15:22:00,
2013-03-07 08:32:00,37.0,25.0,29.97,East,98,0.0,-999.0,62,-99.99,,,-99.99,,2013-03-07 15:32:00,
2013-03-07 08:42:00,37.0,25.0,29.97,East,98,0.0,-999.0,62,-99.99,,,-99.99,,2013-03-07 15:42:00,
2013-03-07 08:53:00,39.0,26.0,30.00,ESE,114,1.0,-999.0,59,-99.99,,,-99.99,,2013-03-07 15:53:00,
2013-03-07 09:02:00,40.0,26.0,30.00,ESE,114,0.0,-999.0,58,-99.99,,,-99.99,,2013-03-07 16:02:00,
2013-03-07 09:12:00,40.0,26.0,30.00,ESE,114,0.0,-999.0,58,-99.99,,,-99.99,,2013-03-07 16:12:00,
2013-03-07 09:23:00,42.0,27.0,29.99,ESE,114,3.0,-999.0,55,-99.99,,,-99.99,,2013-03-07 16:23:00,
2013-03-07 09:32:00,43.0,28.0,29.99,ESE,114,2.0,-999.0,54,-99.99,,,-99.99,,2013-03-07 16:32:00,
2013-03-07 09:42:00,43.0,28.0,29.99,ESE,114,2.0,-999.0,54,-99.99,,,-99.99,,2013-03-07 16:42:00,
2013-03-07 09:53:00,44.0,28.0,29.99,ESE,114,2.0,-999.0,52,-99.99,,,-99.99,,2013-03-07 16:53:00,
2013-03-07 10:02:00,45.0,27.0,29.99,ESE,114,2.0,-999.0,50,-99.99,,,-99.99,,2013-03-07 17:02:00,
2013-03-07 10:12:00,45.0,27.0,29.99,ESE,114,2.0,-999.0,50,-99.99,,,-99.99,,2013-03-07 17:12:00,
2013-03-07 10:22:00,46.0,25.0,29.98,ESE,114,1.0,-999.0,44,-99.99,,,-99.99,,2013-03-07 17:22:00,
2013-03-07 10:32:00,48.0,27.0,29.98,ESE,114,1.0,-999.0,43,-99.99,,,-99.99,,2013-03-07 17:32:00,
2013-03-07 10:43:00,48.0,27.0,29.98,ESE,114,1.0,-999.0,43,-99.99,,,-99.99,,2013-03-07 17:43:00,
2013-03-07 10:54:00,49.0,26.0,29.97,ESE,114,1.0,-999.0,41,-99.99,,,-99.99,,2013-03-07 17:54:00,
2013-03-07 11:03:00,51.0,27.0,29.97,ESE,114,0.0,-999.0,39,-99.99,,,-99.99,,2013-03-07 18:03:00,
2013-03-07 11:12:00,51.0,27.0,29.97,ESE,114,0.0,-999.0,39,-99.99,,,-99.99,,2013-03-07 18:12:00,
2013-03-07 11:22:00,52.0,25.0,29.98,ESE,114,2.0,-999.0,35,-99.99,,,-99.99,,2013-03-07 18:22:00,
2013-03-07 11:32:00,53.0,25.0,29.98,ESE,114,3.0,-999.0,33,-99.99,,,-99.99,,2013-03-07 18:32:00,
2013-03-07 11:42:00,53.0,25.0,29.98,ESE,114,3.0,-999.0,33,-99.99,,,-99.99,,2013-03-07 18:42:00,
2013-03-07 11:52:00,55.0,26.0,29.97,ESE,107,6.0,-999.0,32,-99.99,,,-99.99,,2013-03-07 18:52:00,
2013-03-07 12:02:00,55.0,25.0,29.97,ESE,107,4.0,-999.0,31,-99.99,,,-99.99,,2013-03-07 19:02:00,
2013-03-07 12:12:00,56.0,19.0,29.96,ESE,107,4.0,-999.0,23,-99.99,,,-99.99,,2013-03-07 19:12:00,
2013-03-07 12:23:00,56.0,19.0,29.96,ESE,107,4.0,-999.0,23,-99.99,,,-99.99,,2013-03-07 19:23:00,
2013-03-07 12:34:00,57.0,17.0,29.96,ESE,106,5.0,-999.0,21,-99.99,,,-99.99,,2013-03-07 19:34:00,
2013-03-07 12:43:00,57.0,17.0,29.96,ESE,106,5.0,-999.0,21,-99.99,,,-99.99,,2013-03-07 19:43:00,
2013-03-07 12:53:00,59.0,22.0,29.96,ESE,106,3.0,-999.0,24,-99.99,,,-99.99,,2013-03-07 19:53:00,
2013-03-07 13:02:00,59.0,24.0,29.96,ESE,107,5.0,-999.0,26,-99.99,,,-99.99,,2013-03-07 20:02:00,
2013-03-07 13:13:00,59.0,24.0,29.96,ESE,107,5.0,-999.0,26,-99.99,,,-99.99,,2013-03-07 20:13:00,
2013-03-07 13:22:00,60.0,21.0,29.94,ESE,112,4.0,-999.0,22,-99.99,,,-99.99,,2013-03-07 20:22:00,
2013-03-07 13:32:00,61.0,17.0,29.94,ESE,111,4.0,-999.0,18,-99.99,,,-99.99,,2013-03-07 20:32:00,
2013-03-07 13:42:00,61.0,17.0,29.94,ESE,111,4.0,-999.0,18,-99.99,,,-99.99,,2013-03-07 20:42:00,
2013-03-07 13:54:00,61.0,16.0,29.91,East,91,7.0,-999.0,17,-99.99,,,-99.99,,2013-03-07 20:54:00,
2013-03-07 14:02:00,62.0,17.0,29.91,East,92,5.0,-999.0,17,-99.99,,,-99.99,,2013-03-07 21:02:00,
2013-03-07 14:12:00,62.0,17.0,29.91,East,92,5.0,-999.0,17,-99.99,,,-99.99,,2013-03-07 21:12:00,
2013-03-07 14:22:00,62.0,18.0,29.91,East,96,9.0,-999.0,18,-99.99,,,-99.99,,2013-03-07 21:22:00,
2013-03-07 14:32:00,62.0,17.0,29.91,East,89,9.0,-999.0,17,-99.99,,,-99.99,,2013-03-07 21:32:00,
2013-03-07 14:42:00,62.0,17.0,29.91,East,89,9.0,-999.0,17,-99.99,,,-99.99,,2013-03-07 21:42:00,
2013-03-07 14:53:00,62.0,18.0,29.90,East,99,7.0,-999.0,18,-99.99,,,-99.99,,2013-03-07 21:53:00,
2013-03-07 15:01:00,62.0,17.0,29.90,ESE,107,7.0,-999.0,17,-99.99,,,-99.99,,2013-03-07 22:01:00,
2013-03-07 15:12:00,62.0,17.0,29.90,ESE,107,7.0,-999.0,17,-99.99,,,-99.99,,2013-03-07 22:12:00,
2013-03-07 15:22:00,61.0,16.0,29.90,East,90,9.0,-999.0,17,-99.99,,,-99.99,,2013-03-07 22:22:00,
2013-03-07 15:32:00,62.0,19.0,29.90,East,85,8.0,-999.0,19,-99.99,,,-99.99,,2013-03-07 22:32:00,
2013-03-07 15:42:00,62.0,19.0,29.90,East,85,8.0,-999.0,19,-99.99,,,-99.99,,2013-03-07 22:42:00,
2013-03-07 15:54:00,62.0,19.0,29.89,East,91,6.0,-999.0,19,-99.99,,,-99.99,,2013-03-07 22:54:00,
2013-03-07 16:02:00,62.0,19.0,29.89,East,91,6.0,-999.0,19,-99.99,,,-99.99,,2013-03-07 23:02:00,
2013-03-07 16:12:00,62.0,19.0,29.89,East,91,6.0,-999.0,19,-99.99,,,-99.99,,2013-03-07 23:12:00,
2013-03-07 16:22:00,62.0,19.0,29.88,East,84,6.0,-999.0,19,-99.99,,,-99.99,,2013-03-07 23:22:00,
2013-03-07 16:33:00,61.0,20.0,29.88,ENE,75,7.0,-999.0,20,-99.99,,,-99.99,,2013-03-07 23:33:00,
2013-03-07 16:43:00,61.0,20.0,29.88,ENE,75,7.0,-999.0,20,-99.99,,,-99.99,,2013-03-07 23:43:00,
2013-03-07 16:54:00,61.0,22.0,29.88,ENE,63,10.0,-999.0,22,-99.99,,,-99.99,,2013-03-07 23:54:00,
2013-03-07 17:03:00,61.0,22.0,29.88,ENE,61,9.0,-999.0,22,-99.99,,,-99.99,,2013-03-08 00:03:00,
2013-03-07 17:12:00,61.0,22.0,29.88,ENE,61,9.0,-999.0,22,-99.99,,,-99.99,,2013-03-08 00:12:00,
2013-03-07 17:23:00,60.0,22.0,29.88,NE,49,11.0,-999.0,23,-99.99,,,-99.99,,2013-03-08 00:23:00,
2013-03-07 17:33:00,59.0,23.0,29.88,NE,39,11.0,-999.0,25,-99.99,,,-99.99,,2013-03-08 00:33:00,
2013-03-07 17:43:00,59.0,23.0,29.88,NE,39,11.0,-999.0,25,-99.99,,,-99.99,,2013-03-08 00:43:00,
2013-03-07 17:53:00,58.0,25.0,29.88,NNE,30,12.0,-999.0,28,-99.99,,,-99.99,,2013-03-08 00:53:00,
2013-03-07 18:02:00,57.0,25.0,29.88,NNE,28,10.0,-999.0,29,-99.99,,,-99.99,,2013-03-08 01:02:00,
2013-03-07 18:11:00,57.0,25.0,29.88,NNE,28,10.0,-999.0,29,-99.99,,,-99.99,,2013-03-08 01:11:00,
2013-03-07 18:21:00,55.0,24.0,29.91,NNE,17,9.0,-999.0,30,-99.99,,,-99.99,,2013-03-08 01:21:00,
2013-03-07 18:32:00,55.0,25.0,29.91,NNE,14,9.0,-999.0,31,-99.99,,,-99.99,,2013-03-08 01:32:00,
2013-03-07 18:42:00,55.0,25.0,29.91,NNE,14,9.0,-999.0,31,-99.99,,,-99.99,,2013-03-08 01:42:00,
2013-03-07 18:52:00,54.0,26.0,29.93,NNE,14,8.0,-999.0,33,-99.99,,,-99.99,,2013-03-08 01:52:00,
2013-03-07 19:01:00,53.0,25.0,29.93,NNE,14,8.0,-999.0,33,-99.99,,,-99.99,,2013-03-08 02:01:00,
2013-03-07 19:11:00,52.0,26.0,29.93,NNE,14,7.0,-999.0,36,-99.99,,,-99.99,,2013-03-08 02:11:00,
2013-03-07 19:22:00,52.0,26.0,29.93,NNE,14,7.0,-999.0,36,-99.99,,,-99.99,,2013-03-08 02:22:00,
2013-03-07 19:32:00,51.0,26.0,29.93,NNE,14,7.0,-999.0,38,-99.99,,,-99.99,,2013-03-08 02:32:00,
2013-03-07 19:42:00,51.0,26.0,29.93,NNE,14,7.0,-999.0,38,-99.99,,,-99.99,,2013-03-08 02:42:00,
2013-03-07 19:53:00,50.0,27.0,29.94,NNE,14,6.0,-999.0,40,-99.99,,,-99.99,,2013-03-08 02:53:00,
2013-03-07 20:02:00,49.0,26.0,29.94,NNE,14,6.0,-999.0,40,-99.99,,,-99.99,,2013-03-08 03:02:00,
2013-03-07 20:12:00,49.0,26.0,29.94,NNE,14,6.0,-999.0,40,-99.99,,,-99.99,,2013-03-08 03:12:00,
2013-03-07 20:22:00,49.0,26.0,29.94,NNE,14,5.0,-999.0,40,-99.99,,,-99.99,,2013-03-08 03:22:00,
2013-03-07 20:32:00,48.0,25.0,29.94,NNE,14,5.0,-999.0,40,-99.99,,,-99.99,,2013-03-08 03:32:00,
2013-03-07 20:42:00,48.0,25.0,29.94,NNE,14,5.0,-999.0,40,-99.99,,,-99.99,,2013-03-08 03:42:00,
2013-03-07 20:52:00,49.0,25.0,29.95,NNE,14,2.0,-999.0,39,-99.99,,,-99.99,,2013-03-08 03:52:00,
2013-03-07 21:01:00,49.0,26.0,29.95,NNE,14,3.0,-999.0,40,-99.99,,,-99.99,,2013-03-08 04:01:00,
2013-03-07 21:11:00,49.0,26.0,29.95,NNE,14,3.0,-999.0,40,-99.99,,,-99.99,,2013-03-08 04:11:00,
2013-03-07 21:21:00,47.0,25.0,29.96,NNE,14,5.0,-999.0,41,-99.99,,,-99.99,,2013-03-08 04:21:00,
2013-03-07 21:32:00,47.0,25.0,29.96,NNE,14,4.0,-999.0,42,-99.99,,,-99.99,,2013-03-08 04:32:00,
2013-03-07 21:42:00,47.0,25.0,29.96,NNE,14,4.0,-999.0,42,-99.99,,,-99.99,,2013-03-08 04:42:00,
2013-03-07 21:52:00,46.0,25.0,29.97,NNE,14,6.0,-999.0,44,-99.99,,,-99.99,,2013-03-08 04:52:00,
2013-03-07 22:02:00,45.0,25.0,29.97,NNE,14,8.0,-999.0,46,-99.99,,,-99.99,,2013-03-08 05:02:00,
2013-03-07 22:12:00,45.0,25.0,29.97,NNE,14,8.0,-999.0,46,-99.99,,,-99.99,,2013-03-08 05:12:00,
2013-03-07 22:22:00,45.0,25.0,29.98,NNE,14,5.0,-999.0,46,-99.99,,,-99.99,,2013-03-08 05:22:00,
2013-03-07 22:32:00,45.0,27.0,29.98,NNE,14,5.0,-999.0,48,-99.99,,,-99.99,,2013-03-08 05:32:00,
2013-03-07 22:42:00,45.0,27.0,29.98,NNE,14,5.0,-999.0,48,-99.99,,,-99.99,,2013-03-08 05:42:00,
2013-03-07 22:52:00,43.0,27.0,30.00,NNE,14,2.0,-999.0,52,-99.99,,,-99.99,,2013-03-08 05:52:00,
2013-03-07 23:01:00,43.0,27.0,30.00,NNE,14,4.0,-999.0,52,-99.99,,,-99.99,,2013-03-08 06:01:00,
2013-03-07 23:11:00,43.0,27.0,30.00,NNE,14,4.0,-999.0,52,-99.99,,,-99.99,,2013-03-08 06:11:00,
2013-03-07 23:21:00,42.0,27.0,29.98,NNE,14,2.0,-999.0,54,-99.99,,,-99.99,,2013-03-08 06:21:00,
2013-03-07 23:32:00,42.0,27.0,29.98,NNE,14,3.0,-999.0,55,-99.99,,,-99.99,,2013-03-08 06:32:00,
2013-03-07 23:42:00,42.0,27.0,29.98,NNE,14,3.0,-999.0,55,-99.99,,,-99.99,,2013-03-08 06:42:00,
2013-03-07 23:52:00,42.0,27.0,29.98,NNE,14,1.0,-999.0,55,-99.99,,,-99.99,,2013-03-08 06:52:00,